createdAt,value
2017-12-01T00:00:08.749Z,28.90
2017-12-01T00:06:08.957Z,28.97
2017-12-01T00:08:50.946Z,34.13
2017-12-01T00:11:27.917Z,36.03
2017-12-01T00:14:02.558Z,34.20
2017-12-01T00:16:41.781Z,30.77
2017-12-01T00:19:19.679Z,29.80
2017-12-01T00:21:51.837Z,31.40
2017-12-01T00:24:31.195Z,34.10
2017-12-01T00:27:21.113Z,31.90
2017-12-01T00:29:53.188Z,33.57
2017-12-01T00:32:25.878Z,38.77
2017-12-01T00:35:15.309Z,36.80
2017-12-01T00:37:53.900Z,33.73
2017-12-01T00:40:26.746Z,39.23
2017-12-01T00:43:00.725Z,34.00
2017-12-01T00:45:32.828Z,31.33
2017-12-01T00:48:20.977Z,35.87
2017-12-01T00:50:57.376Z,40.90
2017-12-01T00:53:34.122Z,33.20
2017-12-01T00:56:16.442Z,33.43
2017-12-01T00:58:56.166Z,34.60
2017-12-01T01:01:32.550Z,35.43
2017-12-01T01:04:06.040Z,35.30
2017-12-01T01:06:45.287Z,34.83
2017-12-01T01:09:28.453Z,36.40
2017-12-01T01:12:21.278Z,34.60
2017-12-01T01:14:59.210Z,34.23
2017-12-01T01:20:43.147Z,35.83
2017-12-01T01:30:53.913Z,32.40
2017-12-01T01:33:33.176Z,30.70
2017-12-01T01:36:13.751Z,32.90
2017-12-01T01:39:15.656Z,28.73
2017-12-01T01:42:07.049Z,28.10
2017-12-01T01:44:44.978Z,28.50
2017-12-01T01:47:17.186Z,33.37
2017-12-01T01:49:50.669Z,35.77
2017-12-01T01:52:23.558Z,28.80
2017-12-01T01:55:11.161Z,29.50
2017-12-01T02:00:46.643Z,26.07
2017-12-01T02:03:23.728Z,27.10
2017-12-01T02:06:13.908Z,23.63
2017-12-01T02:08:52.530Z,28.50
2017-12-01T02:11:23.850Z,30.73
2017-12-01T02:13:57.219Z,29.27
2017-12-01T02:16:53.988Z,40.40
2017-12-01T02:19:26.258Z,29.90
2017-12-01T02:21:58.696Z,25.53
2017-12-01T02:24:30.756Z,25.53
2017-12-01T02:27:02.101Z,29.70
2017-12-01T02:29:40.277Z,28.53
2017-12-01T02:32:12.623Z,39.90
2017-12-01T02:34:44.796Z,31.40
2017-12-01T02:37:19.943Z,33.03
2017-12-01T02:39:51.161Z,38.93
2017-12-01T02:42:32.463Z,38.77
2017-12-01T02:45:13.878Z,36.07
2017-12-01T02:47:54.398Z,35.40
2017-12-01T02:50:26.673Z,33.10
2017-12-01T02:53:11.819Z,37.40
2017-12-01T02:55:45.065Z,37.73
2017-12-01T02:58:17.113Z,35.07
2017-12-01T03:00:48.822Z,32.53
2017-12-01T03:03:30.735Z,29.80
2017-12-01T03:06:04.855Z,27.57
2017-12-01T03:08:39.869Z,33.57
2017-12-01T03:11:13.520Z,31.57
2017-12-01T03:13:45.662Z,27.70
2017-12-01T03:16:19.991Z,29.80
2017-12-01T03:18:52.871Z,33.00
2017-12-01T03:21:25.989Z,31.37
2017-12-01T03:24:01.175Z,32.27
2017-12-01T03:26:34.194Z,30.30
2017-12-01T03:29:05.657Z,30.30
2017-12-01T03:31:36.761Z,30.30
2017-12-01T03:34:08.255Z,31.50
2017-12-01T03:36:42.137Z,29.80
2017-12-01T03:39:14.755Z,32.57
2017-12-01T03:41:46.695Z,32.23
2017-12-01T03:44:21.039Z,29.07
2017-12-01T03:46:57.590Z,33.97
2017-12-01T03:49:28.577Z,33.90
2017-12-01T03:52:00.044Z,36.13
2017-12-01T03:54:31.082Z,34.20
2017-12-01T03:57:04.200Z,33.20
2017-12-01T03:59:34.692Z,31.37
2017-12-01T04:02:06.470Z,36.67
2017-12-01T04:04:37.444Z,30.57
2017-12-01T04:07:08.662Z,28.70
2017-12-01T04:09:40.441Z,27.70
2017-12-01T04:12:12.480Z,26.73
2017-12-01T04:14:45.200Z,27.00
2017-12-01T04:17:16.166Z,30.20
2017-12-01T04:19:47.253Z,30.47
2017-12-01T04:22:18.794Z,30.03
2017-12-01T04:24:51.111Z,28.20
2017-12-01T04:27:23.834Z,24.37
2017-12-01T04:29:55.352Z,26.20
2017-12-01T04:32:26.170Z,30.07
2017-12-01T04:34:57.333Z,25.83
2017-12-01T04:37:30.547Z,30.30
2017-12-01T04:40:01.522Z,24.10
2017-12-01T04:42:33.709Z,22.97
2017-12-01T04:45:16.409Z,24.20
2017-12-01T04:47:49.840Z,26.20
2017-12-01T04:50:26.355Z,24.97
2017-12-01T04:53:00.485Z,24.40
2017-12-01T04:55:34.398Z,27.23
2017-12-01T04:58:06.322Z,23.30
2017-12-01T05:00:40.230Z,26.20
2017-12-01T05:03:16.383Z,23.67
2017-12-01T05:05:49.912Z,21.13
2017-12-01T05:08:22.550Z,23.97
2017-12-01T05:10:56.108Z,23.40
2017-12-01T05:13:29.241Z,26.70
2017-12-01T05:16:03.156Z,22.43
2017-12-01T05:18:40.807Z,21.30
2017-12-01T05:21:12.284Z,20.67
2017-12-01T05:23:45.645Z,20.77
2017-12-01T05:26:25.988Z,19.53
2017-12-01T05:28:58.491Z,21.03
2017-12-01T05:31:33.092Z,24.53
2017-12-01T05:34:04.918Z,23.33
2017-12-01T05:36:41.922Z,25.20
2017-12-01T05:42:41.583Z,22.67
2017-12-01T05:45:16.024Z,22.33
2017-12-01T05:47:50.291Z,21.80
2017-12-01T05:50:22.460Z,23.70
2017-12-01T05:52:58.288Z,25.70
2017-12-01T05:55:30.888Z,19.80
2017-12-01T05:58:11.231Z,25.40
2017-12-01T06:00:49.172Z,21.37
2017-12-01T06:03:20.782Z,23.67
2017-12-01T06:05:56.701Z,23.83
2017-12-01T06:08:31.502Z,32.73
2017-12-01T06:11:10.630Z,25.43
2017-12-01T06:13:42.897Z,26.00
2017-12-01T06:16:18.989Z,25.87
2017-12-01T06:18:52.523Z,23.37
2017-12-01T06:21:31.071Z,24.20
2017-12-01T06:24:13.022Z,28.43
2017-12-01T06:26:44.372Z,26.40
2017-12-01T06:29:16.751Z,25.13
2017-12-01T06:32:05.080Z,27.20
2017-12-01T06:34:52.627Z,25.27
2017-12-01T06:37:35.260Z,26.00
2017-12-01T06:40:08.838Z,29.00
2017-12-01T06:42:41.922Z,25.60
2017-12-01T06:45:14.328Z,24.70
2017-12-01T06:47:45.868Z,27.43
2017-12-01T06:50:19.793Z,27.77
2017-12-01T06:52:53.178Z,24.37
2017-12-01T06:55:27.476Z,27.97
2017-12-01T06:57:59.439Z,26.63
2017-12-01T07:00:31.170Z,28.00
2017-12-01T07:03:30.996Z,27.70
2017-12-01T07:08:56.511Z,23.03
2017-12-01T07:11:33.318Z,25.80
2017-12-01T07:14:04.757Z,24.70
2017-12-01T07:16:37.782Z,21.03
2017-12-01T07:19:14.432Z,21.07
2017-12-01T07:21:47.340Z,21.80
2017-12-01T07:24:20.532Z,18.20
2017-12-01T07:27:13.982Z,15.47
2017-12-01T07:29:50.013Z,20.97
2017-12-01T07:32:24.918Z,21.07
2017-12-01T07:34:57.223Z,20.93
2017-12-01T07:37:32.155Z,23.80
2017-12-01T07:40:05.483Z,25.80
2017-12-01T07:42:43.177Z,28.00
2017-12-01T07:45:18.129Z,29.20
2017-12-01T07:47:49.640Z,28.43
2017-12-01T07:50:41.375Z,28.77
2017-12-01T07:53:15.023Z,28.00
2017-12-01T07:55:49.105Z,25.90
2017-12-01T07:58:26.189Z,28.13
2017-12-01T08:00:59.971Z,25.50
2017-12-01T08:03:31.190Z,24.27
2017-12-01T08:06:03.661Z,23.87
2017-12-01T08:08:39.738Z,62.97
2017-12-01T08:17:55.465Z,23.80
2017-12-01T08:20:26.450Z,25.20
2017-12-01T08:22:57.848Z,26.00
2017-12-01T08:25:29.090Z,24.37
2017-12-01T08:28:01.806Z,29.13
2017-12-01T08:30:35.494Z,29.87
2017-12-01T08:33:05.698Z,33.03
2017-12-01T08:35:35.771Z,28.77
2017-12-01T08:38:05.912Z,32.83
2017-12-01T08:40:36.011Z,40.20
2017-12-01T08:43:06.381Z,30.87
2017-12-01T08:45:37.312Z,31.20
2017-12-01T08:48:08.204Z,31.13
2017-12-01T08:50:38.630Z,31.50
2017-12-01T08:53:16.468Z,29.90
2017-12-01T08:55:48.391Z,28.00
2017-12-01T08:58:18.505Z,31.13
2017-12-01T09:00:48.747Z,32.53
2017-12-01T09:03:22.820Z,32.67
2017-12-01T09:05:56.409Z,31.50
2017-12-01T09:08:27.037Z,29.67
2017-12-01T09:10:57.281Z,31.43
2017-12-01T09:13:27.530Z,30.97
2017-12-01T09:15:58.120Z,34.57
2017-12-01T09:18:28.236Z,33.93
2017-12-01T09:20:58.550Z,32.33
2017-12-01T09:23:29.981Z,45.93
2017-12-01T09:26:01.380Z,31.80
2017-12-01T09:28:31.742Z,32.67
2017-12-01T09:31:02.100Z,35.13
2017-12-01T09:33:32.274Z,32.43
2017-12-01T09:36:02.415Z,34.90
2017-12-01T09:38:33.228Z,38.23
2017-12-01T09:41:03.599Z,31.40
2017-12-01T09:43:37.673Z,32.80
2017-12-01T09:46:11.454Z,28.77
2017-12-01T09:48:43.890Z,30.20
2017-12-01T09:51:15.534Z,31.17
2017-12-01T09:53:51.379Z,32.90
2017-12-01T09:56:22.887Z,31.87
2017-12-01T09:58:56.324Z,30.13
2017-12-01T10:01:27.390Z,33.80
2017-12-01T10:03:58.467Z,30.77
2017-12-01T10:06:29.325Z,32.47
2017-12-01T10:08:59.867Z,27.33
2017-12-01T10:11:30.057Z,31.47
2017-12-01T10:14:00.100Z,31.23
2017-12-01T10:16:32.124Z,29.57
2017-12-01T10:19:02.212Z,30.23
2017-12-01T10:21:33.434Z,31.37
2017-12-01T10:24:03.713Z,28.40
2017-12-01T10:26:35.542Z,31.67
2017-12-01T10:29:06.970Z,28.80
2017-12-01T10:31:37.218Z,28.50
2017-12-01T10:34:08.172Z,29.97
2017-12-01T10:36:38.643Z,39.10
2017-12-01T10:39:09.127Z,38.20
2017-12-01T10:41:42.984Z,29.30
2017-12-01T10:44:15.731Z,27.90
2017-12-01T10:46:45.958Z,24.60
2017-12-01T10:49:16.552Z,29.20
2017-12-01T10:51:50.707Z,28.17
2017-12-01T10:54:20.985Z,29.43
2017-12-01T10:56:51.960Z,27.97
2017-12-01T10:59:22.612Z,29.07
2017-12-01T11:01:52.977Z,29.37
2017-12-01T11:04:24.680Z,31.03
2017-12-01T11:06:54.993Z,27.87
2017-12-01T11:09:25.122Z,36.27
2017-12-01T11:11:55.617Z,29.33
2017-12-01T11:14:26.795Z,27.20
2017-12-01T11:16:57.054Z,23.67
2017-12-01T11:19:28.027Z,26.97
2017-12-01T11:22:00.792Z,27.73
2017-12-01T11:24:31.893Z,25.17
2017-12-01T11:27:03.017Z,28.37
2017-12-01T11:29:35.190Z,25.23
2017-12-01T11:32:06.015Z,26.67
2017-12-01T11:34:37.859Z,28.20
2017-12-01T11:37:08.944Z,26.00
2017-12-01T11:39:45.031Z,27.17
2017-12-01T11:42:19.068Z,30.60
2017-12-01T11:44:49.432Z,24.60
2017-12-01T11:47:19.686Z,25.57
2017-12-01T11:49:50.075Z,23.67
2017-12-01T11:52:26.889Z,23.10
2017-12-01T11:55:02.643Z,23.13
2017-12-01T11:57:34.031Z,24.40
2017-12-01T12:00:05.438Z,21.70
2017-12-01T12:02:40.542Z,19.93
2017-12-01T12:05:14.313Z,20.57
2017-12-01T12:07:47.354Z,20.77
2017-12-01T12:10:17.821Z,22.30
2017-12-01T12:12:49.161Z,22.77
2017-12-01T12:15:20.915Z,21.63
2017-12-01T12:17:52.013Z,21.87
2017-12-01T12:20:22.457Z,21.93
2017-12-01T12:22:53.194Z,24.83
2017-12-01T12:25:23.480Z,25.17
2017-12-01T12:27:58.480Z,24.33
2017-12-01T12:30:40.666Z,24.20
2017-12-01T12:35:55.637Z,22.23
2017-12-01T12:38:26.674Z,49.60
2017-12-01T12:40:57.098Z,21.57
2017-12-01T12:43:28.183Z,17.30
2017-12-01T12:46:06.339Z,19.43
2017-12-01T12:48:37.470Z,17.63
2017-12-01T12:51:16.734Z,23.27
2017-12-01T12:53:53.365Z,18.20
2017-12-01T12:56:24.591Z,19.47
2017-12-01T12:58:55.998Z,17.53
2017-12-01T13:01:26.644Z,18.27
2017-12-01T13:03:59.645Z,19.90
2017-12-01T13:06:31.920Z,19.30
2017-12-01T13:09:10.499Z,19.77
2017-12-01T13:11:42.624Z,23.53
2017-12-01T13:14:15.477Z,30.37
2017-12-01T13:16:47.737Z,21.27
2017-12-01T13:19:19.330Z,19.33
2017-12-01T13:21:50.585Z,21.20
2017-12-01T13:24:25.188Z,21.77
2017-12-01T13:27:01.115Z,23.10
2017-12-01T13:29:35.874Z,17.67
2017-12-01T13:32:06.309Z,16.83
2017-12-01T13:34:38.470Z,17.33
2017-12-01T13:37:09.373Z,16.13
2017-12-01T13:39:39.550Z,14.33
2017-12-01T13:42:10.445Z,14.17
2017-12-01T13:44:40.654Z,13.43
2017-12-01T13:47:11.086Z,20.13
2017-12-01T13:49:44.876Z,16.60
2017-12-01T13:52:19.265Z,15.47
2017-12-01T13:54:54.495Z,15.53
2017-12-01T13:57:24.810Z,16.33
2017-12-01T13:59:55.820Z,15.20
2017-12-01T14:02:26.620Z,16.47
2017-12-01T14:04:57.849Z,14.27
2017-12-01T14:07:28.033Z,15.30
2017-12-01T14:09:59.369Z,18.67
2017-12-01T14:12:29.971Z,19.20
2017-12-01T14:15:00.156Z,18.07
2017-12-01T14:17:31.989Z,19.47
2017-12-01T14:20:06.143Z,18.53
2017-12-01T14:22:40.294Z,23.80
2017-12-01T14:25:12.187Z,24.43
2017-12-01T14:27:42.925Z,21.00
2017-12-01T14:30:14.630Z,19.90
2017-12-01T14:32:45.863Z,22.53
2017-12-01T14:35:19.170Z,21.53
2017-12-01T14:37:49.632Z,22.07
2017-12-01T14:40:19.948Z,23.60
2017-12-01T14:42:50.012Z,24.67
2017-12-01T14:45:20.138Z,21.80
2017-12-01T14:47:50.615Z,22.20
2017-12-01T14:50:20.752Z,20.50
2017-12-01T14:52:50.899Z,21.77
2017-12-01T14:55:22.709Z,22.10
2017-12-01T14:57:53.533Z,19.20
2017-12-01T15:00:28.640Z,20.93
2017-12-01T15:03:02.316Z,20.03
2017-12-01T15:05:43.517Z,20.10
2017-12-01T15:08:24.363Z,24.30
2017-12-01T15:10:55.979Z,19.57
2017-12-01T15:13:26.342Z,20.47
2017-12-01T15:15:57.211Z,19.80
2017-12-01T15:18:27.419Z,18.67
2017-12-01T15:20:58.391Z,25.27
2017-12-01T15:23:28.570Z,26.33
2017-12-01T15:25:59.610Z,18.60
2017-12-01T15:28:31.078Z,20.00
2017-12-01T15:31:01.208Z,22.07
2017-12-01T15:33:31.470Z,19.73
2017-12-01T15:36:07.245Z,18.80
2017-12-01T15:38:38.932Z,20.00
2017-12-01T15:41:09.695Z,20.33
2017-12-01T15:43:39.896Z,20.30
2017-12-01T15:46:12.460Z,27.75
2017-12-01T15:48:45.764Z,22.73
2017-12-01T15:51:15.931Z,26.70
2017-12-01T15:53:46.043Z,26.60
2017-12-01T15:56:16.959Z,23.10
2017-12-01T15:58:53.516Z,21.80
2017-12-01T16:01:25.389Z,24.40
2017-12-01T16:03:58.138Z,25.10
2017-12-01T16:06:28.408Z,24.53
2017-12-01T16:08:58.588Z,25.83
2017-12-01T16:11:28.946Z,25.20
2017-12-01T16:13:59.984Z,26.30
2017-12-01T16:16:30.367Z,28.63
2017-12-01T16:19:01.582Z,32.63
2017-12-01T16:21:32.674Z,25.83
2017-12-01T16:24:07.186Z,26.60
2017-12-01T16:26:41.943Z,30.90
2017-12-01T16:29:12.437Z,31.33
2017-12-01T16:31:43.953Z,35.13
2017-12-01T16:34:14.144Z,33.50
2017-12-01T16:36:44.372Z,30.80
2017-12-01T16:39:15.167Z,31.57
2017-12-01T16:41:47.013Z,36.80
2017-12-01T16:44:18.307Z,28.20
2017-12-01T16:46:48.800Z,31.93
2017-12-01T16:49:19.777Z,29.63
2017-12-01T16:51:53.042Z,30.70
2017-12-01T16:54:28.786Z,32.83
2017-12-01T16:56:59.067Z,30.33
2017-12-01T16:59:29.317Z,25.90
2017-12-01T17:02:00.106Z,28.97
2017-12-01T17:04:30.426Z,35.70
2017-12-01T17:07:00.966Z,28.07
2017-12-01T17:09:31.780Z,27.63
2017-12-01T17:12:02.680Z,28.60
2017-12-01T17:14:33.917Z,27.70
2017-12-01T17:17:04.529Z,29.57
2017-12-01T17:19:35.092Z,29.30
2017-12-01T17:22:07.031Z,30.30
2017-12-01T17:24:38.408Z,29.07
2017-12-01T17:27:08.666Z,29.03
2017-12-01T17:29:39.549Z,28.63
2017-12-01T17:32:10.712Z,28.67
2017-12-01T17:34:41.908Z,30.13
2017-12-01T17:37:12.291Z,29.53
2017-12-01T17:39:45.735Z,30.10
2017-12-01T17:42:16.619Z,30.50
2017-12-01T17:44:54.206Z,27.77
2017-12-01T17:47:24.940Z,29.97
2017-12-01T17:49:55.376Z,28.40
2017-12-01T17:52:25.902Z,33.13
2017-12-01T17:54:58.819Z,34.50
2017-12-01T17:57:29.183Z,31.40
2017-12-01T18:00:02.474Z,37.00
2017-12-01T18:02:39.458Z,34.27
2017-12-01T18:05:12.643Z,31.67
2017-12-01T18:07:48.746Z,32.13
2017-12-01T18:10:24.328Z,33.07
2017-12-01T18:12:57.228Z,31.67
2017-12-01T18:15:27.895Z,33.10
2017-12-01T18:17:59.415Z,30.20
2017-12-01T18:20:29.813Z,29.50
2017-12-01T18:22:59.993Z,29.47
2017-12-01T18:25:37.892Z,28.63
2017-12-01T18:28:10.575Z,27.53
2017-12-01T18:30:45.499Z,27.20
2017-12-01T18:33:19.427Z,28.73
2017-12-01T18:35:50.698Z,30.97
2017-12-01T18:38:21.070Z,32.50
2017-12-01T18:40:55.622Z,28.57
2017-12-01T18:43:25.817Z,31.80
2017-12-01T18:46:00.787Z,60.00
2017-12-01T18:48:35.428Z,31.77
2017-12-01T18:51:05.929Z,30.73
2017-12-01T18:53:41.243Z,35.10
2017-12-01T18:56:15.702Z,32.50
2017-12-01T18:58:47.775Z,39.00
2017-12-01T19:01:20.210Z,28.87
2017-12-01T19:03:59.437Z,34.27
2017-12-01T19:06:36.867Z,35.67
2017-12-01T19:09:12.103Z,33.27
2017-12-01T19:11:43.816Z,36.80
2017-12-01T19:14:14.504Z,41.03
2017-12-01T19:16:46.504Z,36.03
2017-12-01T19:19:16.886Z,33.70
2017-12-01T19:21:47.552Z,34.60
2017-12-01T19:24:20.546Z,33.43
2017-12-01T19:26:51.219Z,33.83
2017-12-01T19:29:22.419Z,33.20
2017-12-01T19:31:52.772Z,37.13
2017-12-01T19:34:23.757Z,36.57
2017-12-01T19:36:58.484Z,33.93
2017-12-01T19:39:28.972Z,38.10
2017-12-01T19:41:59.496Z,44.80
2017-12-01T19:44:29.791Z,39.10
2017-12-01T19:47:00.433Z,47.07
2017-12-01T19:49:30.666Z,37.60
2017-12-01T19:52:01.918Z,35.97
2017-12-01T19:54:36.295Z,37.50
2017-12-01T19:57:07.938Z,35.97
2017-12-01T19:59:38.852Z,40.10
2017-12-01T20:02:09.506Z,49.80
2017-12-01T20:04:40.076Z,38.03
2017-12-01T20:07:10.844Z,37.50
2017-12-01T20:09:41.900Z,34.77
2017-12-01T20:12:17.270Z,45.60
2017-12-01T20:14:54.557Z,35.53
2017-12-01T20:17:27.388Z,46.87
2017-12-01T20:19:58.268Z,33.70
2017-12-01T20:22:28.574Z,61.37
2017-12-01T20:24:58.931Z,38.80
2017-12-01T20:27:29.805Z,40.40
2017-12-01T20:30:01.860Z,46.07
2017-12-01T20:32:33.402Z,46.80
2017-12-01T20:35:04.529Z,38.13
2017-12-01T20:37:36.820Z,37.20
2017-12-01T20:40:07.434Z,82.30
2017-12-01T20:42:37.539Z,44.40
2017-12-01T20:45:07.929Z,50.60
2017-12-01T20:47:39.958Z,38.27
2017-12-01T20:50:10.763Z,40.03
2017-12-01T20:52:41.922Z,43.90
2017-12-01T20:55:12.487Z,35.50
2017-12-01T20:57:42.794Z,38.10
2017-12-01T21:00:13.275Z,40.70
2017-12-01T21:02:45.837Z,38.37
2017-12-01T21:05:16.615Z,41.53
2017-12-01T21:07:50.319Z,37.73
2017-12-01T21:10:21.314Z,46.60
2017-12-01T21:12:52.114Z,46.13
2017-12-01T21:15:22.674Z,48.07
2017-12-01T21:17:53.087Z,40.17
2017-12-01T21:20:23.651Z,44.67
2017-12-01T21:22:55.657Z,42.17
2017-12-01T21:25:26.080Z,38.00
2017-12-01T21:27:56.354Z,42.77
2017-12-01T21:30:27.026Z,43.87
2017-12-01T21:32:57.236Z,51.17
2017-12-01T21:35:27.492Z,40.87
2017-12-01T21:37:58.232Z,45.47
2017-12-01T21:40:29.815Z,43.60
2017-12-01T21:43:00.093Z,39.53
2017-12-01T21:45:31.828Z,41.03
2017-12-01T21:48:05.709Z,38.53
2017-12-01T21:50:37.090Z,41.07
2017-12-01T21:53:09.082Z,47.27
2017-12-01T22:49:18.100Z,53.40
2017-12-01T22:51:49.253Z,69.10
2017-12-01T22:54:21.269Z,47.67
2017-12-01T22:56:55.572Z,59.60
2017-12-01T22:59:26.103Z,48.80
2017-12-01T23:02:11.784Z,89.47
2017-12-01T23:04:44.288Z,49.53
2017-12-01T23:07:16.228Z,52.63
2017-12-01T23:09:47.526Z,50.57
2017-12-01T23:12:28.424Z,46.80
2017-12-01T23:15:04.267Z,56.13
2017-12-01T23:17:46.254Z,46.30
2017-12-01T23:20:17.899Z,51.80
2017-12-01T23:22:48.923Z,45.93
2017-12-01T23:25:21.880Z,40.33
2017-12-01T23:27:53.368Z,67.93
2017-12-01T23:30:26.624Z,47.30
2017-12-01T23:32:58.319Z,107.73
2017-12-01T23:35:32.004Z,44.47
2017-12-01T23:38:02.606Z,38.03
2017-12-01T23:40:36.056Z,57.13
2017-12-01T23:43:06.977Z,69.93
2017-12-01T23:45:43.145Z,86.20
2017-12-01T23:48:18.922Z,51.67
2017-12-01T23:50:50.541Z,55.13
2017-12-01T23:53:21.739Z,58.33
2017-12-01T23:55:53.394Z,35.00
2017-12-01T23:58:30.451Z,46.13
